Latest Coastal Weather Observations for Flinders Island Airport

IDT60701

Issued at 1:03 am EST Wednesday 29 June 2016 (issued every 10 minutes, with the page automatically refreshed every 10 minutes)

About coastal observations | Map of coastal stations | Coastal observations for TAS | Marine services | Other Formats
Station Details ID: 099005 Name: FLINDERS ISLAND AIRPORT Lat: -40.09 Lon: 148.00 Height: 9.0 m
Data from the previous 72 hours. | See also: Recent months at Flinders Island Airport
Date/Time
EST
Temp
°C
Wind Pressure Rain since
9am
mm
Weather Cloud Vis
km
Sea
Height
m
Swell
Dir  Spd
kts
Gust
kts
hPa Trend Height
m
Period
s
Dir
29/01:00am 12.3 WNW 18 24 1021.6 - 0.0 - - 10 - - - -
29/12:30am 11.8 W 18 23 1021.6 - 0.0 - Partly cloudy 10 - - - -
29/12:02am 13.0 WNW 21 35 1021.7 - 0.0 - Partly cloudy 10 - - - -
29/12:00am 13.1 WNW 20 25 1021.6 - 0.0 - Partly cloudy 10 - - - -
 
Date/Time
EST
Temp
°C
Wind Pressure Rain since
9am
mm
Weather Cloud Vis
km
Sea
Height
m
Swell
Dir  Spd
kts
Gust
kts
hPa Trend Height
m
Period
s
Dir
28/11:30pm 13.2 W 19 24 1021.6 - 0.0 - Partly cloudy 10 - - - -
28/11:00pm 13.1 WNW 21 28 1021.5 - 0.0 - Partly cloudy 10 - - - -
28/10:30pm 13.0 WNW 19 23 1021.5 - 0.0 - Partly cloudy 10 - - - -
28/10:00pm 13.1 W 19 24 1021.7 - 0.0 - Partly cloudy 10 - - - -
28/09:30pm 12.9 WNW 17 22 1021.7 - 0.0 - Partly cloudy 10 - - - -
28/09:00pm 12.8 WNW 15 20 1021.4 - 0.0 - - 10 - - - -
28/08:30pm 12.8 WNW 16 19 1021.4 - 0.0 - Partly cloudy 10 - - - -
28/08:19pm 12.8 W 16 19 1021.4 - 0.0 - Partly cloudy 10 - - - -
28/08:03pm 13.0 W 16 21 1021.4 - 0.0 - Partly cloudy 10 - - - -
28/08:00pm 13.0 W 17 21 1021.4 - 0.0 - Partly cloudy 10 - - - -
28/07:59pm 13.0 W 17 21 1021.4 - 0.0 - Partly cloudy 10 - - - -
28/07:41pm 12.9 W 16 20 1021.4 - 0.0 - Partly cloudy 10 - - - -
28/07:40pm 12.9 W 16 20 1021.4 - 0.0 - Partly cloudy 10 - - - -
28/07:30pm 13.0 WNW 16 20 1021.4 - 0.0 - Partly cloudy 10 - - - -
28/07:27pm 13.2 W 15 20 1021.4 - 0.0 - Partly cloudy 10 - - - -
28/07:00pm 13.0 WNW 16 20 1021.3 - 0.0 - Partly cloudy 10 - - - -
28/06:36pm 13.1 WNW 15 19 1021.1 - 0.0 - Partly cloudy 10 - - - -
28/06:30pm 13.1 WNW 15 19 1021.0 - 0.0 - Partly cloudy 10 - - - -
28/06:00pm 12.9 WNW 15 20 1020.8 - 0.0 - Partly cloudy 10 - - - -
28/05:30pm 13.1 W 16 20 1020.4 - 0.0 - Partly cloudy 10 - - - -
28/05:00pm 13.1 W 15 18 1020.2 - 0.0 - Partly cloudy 10 - - - -
28/04:30pm 13.4 W 16 21 1019.9 - 0.0 - Partly cloudy - - - - -
28/04:00pm 13.4 WNW 16 20 1019.7 - 0.0 - Partly cloudy 10 - - - -
28/03:30pm 13.6 W 17 20 1019.6 - 0.0 - Partly cloudy 10 - - - -
28/03:00pm 13.7 WNW 18 24 1019.3 - 0.0 - Cloudy 10 - - - -
28/02:30pm 13.8 WNW 17 22 1019.1 - 0.0 - Partly cloudy 10 - - - -
28/02:00pm 14.1 WNW 18 22 1019.0 - 0.0 - Partly cloudy 10 - - - -
28/01:30pm 14.2 W 17 22 1018.9 - 0.0 - Partly cloudy 10 - - - -
28/01:01pm 14.5 WNW 19 24 1019.0 - 0.0 - Partly cloudy 10 - - - -
28/01:00pm 14.5 WNW 19 24 1019.0 - 0.0 - Partly cloudy 10 - - - -
28/12:36pm 14.4 W 17 24 1019.1 - 0.0 - Partly cloudy 10 - - - -
28/12:30pm 14.1 W 17 23 1019.1 - 0.0 - Partly cloudy 10 - - - -
28/12:22pm 14.2 W 18 23 1019.1 - 0.0 - Partly cloudy 10 - - - -
28/12:00pm 13.9 WNW 18 22 1019.1 - 0.0 - Cloudy 10 - - - -
28/11:55am 14.1 W 17 22 1019.2 - 0.0 - Partly cloudy 10 - - - -
28/11:30am 13.7 W 18 24 1019.3 - 0.0 - Partly cloudy 9 - - - -
28/11:27am 13.9 W 18 24 1019.3 - 0.0 - Partly cloudy 10 - - - -
28/11:11am 14.0 W 18 23 1019.4 - 0.0 - Partly cloudy 10 - - - -
28/11:10am 14.1 W 18 23 1019.4 - 0.0 - Partly cloudy 10 - - - -
28/11:00am 14.1 W 17 23 1019.4 - 0.0 - Partly cloudy 10 - - - -
28/10:44am 13.8 W 16 21 1019.5 - 0.0 - Partly cloudy 10 - - - -
28/10:30am 13.6 W 17 21 1019.6 - 0.0 - Partly cloudy 10 - - - -
28/10:00am 13.3 W 18 23 1019.2 - 0.0 - Partly cloudy 10 - - - -
28/09:30am 13.6 W 17 23 1019.0 - 0.0 - Partly cloudy 10 - - - -
28/09:00am 13.3 W 16 19 1018.7 - 0.2 - Partly cloudy 10 - - - -
28/08:30am 12.7 W 17 23 1018.5 - 0.2 - Partly cloudy 10 - - - -
28/08:00am 12.4 WNW 16 19 1018.4 - 0.2 - Partly cloudy 10 - - - -
28/07:30am 12.3 W 15 19 1018.1 - 0.2 - Partly cloudy 10 - - - -
28/07:00am 12.3 W 17 21 1017.7 - 0.2 - Partly cloudy 10 - - - -
28/06:30am 12.2 W 17 21 1017.5 - 0.2 - Partly cloudy 10 - - - -
28/06:00am 12.2 W 18 21 1017.2 - 0.2 - Mostly clear 10 - - - -
28/05:30am 12.2 W 17 25 1016.9 - 0.2 - - 10 - - - -
28/05:00am 12.4 W 17 22 1016.6 - 0.2 - Partly cloudy 10 - - - -
28/04:30am 12.2 W 16 20 1016.5 - 0.2 - Partly cloudy 10 - - - -
28/04:00am 12.0 W 16 19 1016.6 - 0.2 - Partly cloudy 10 - - - -
28/03:30am 11.9 W 16 19 1016.7 - 0.2 - - 10 - - - -
28/03:00am 11.6 W 15 19 1016.6 - 0.2 - - 10 - - - -
28/02:30am 11.6 W 15 19 1016.7 - 0.2 - - 10 - - - -
28/02:00am 11.6 W 16 20 1016.6 - 0.2 - Partly cloudy 10 - - - -
28/01:30am 11.6 W 16 20 1016.6 - 0.2 - Partly cloudy 10 - - - -
28/01:02am 11.1 WSW 20 27 1016.8 - 0.2 - Partly cloudy 10 - - - -
28/01:00am 11.0 WSW 19 22 1016.8 - 0.2 - Partly cloudy 10 - - - -
28/12:49am 10.7 W 20 28 1016.8 - 0.2 - Partly cloudy 5 - - - -
28/12:43am 11.7 W 15 28 1016.7 - 0.2 - Partly cloudy 10 - - - -
28/12:30am 11.6 W 12 16 1016.6 - 0.2 - Partly cloudy 10 - - - -
28/12:00am 11.5 W 14 17 1016.7 - 0.2 - Cloudy 10 - - - -
 
Date/Time
EST
Temp
°C
Wind Pressure Rain since
9am
mm
Weather Cloud Vis
km
Sea
Height
m
Swell
Dir  Spd
kts
Gust
kts
hPa Trend Height
m
Period
s
Dir
27/11:30pm 11.7 W 13 19 1016.7 - 0.2 - Partly cloudy 10 - - - -
27/11:00pm 11.2 W 13 17 1016.6 - 0.2 - Partly cloudy 10 - - - -
27/10:30pm 11.4 W 14 18 1016.6 - 0.2 - Partly cloudy 10 - - - -
27/10:00pm 11.4 W 15 19 1016.5 - 0.2 - Partly cloudy 10 - - - -
27/09:30pm 10.6 WNW 11 15 1016.5 - 0.2 - Partly cloudy 10 - - - -
27/09:00pm 10.9 W 17 23 1016.4 - 0.2 - Partly cloudy 10 - - - -
27/08:30pm 10.8 W 15 18 1016.3 - 0.2 - Partly cloudy 10 - - - -
27/08:04pm 11.4 W 15 27 1016.2 - 0.2 - Partly cloudy 10 - - - -
27/08:00pm 11.2 W 14 17 1016.1 - 0.2 - Partly cloudy 10 - - - -
27/07:30pm 10.8 W 18 26 1015.8 - 0.2 - Partly cloudy 10 - - - -
27/07:00pm 11.2 W 16 20 1015.5 - 0.2 - Partly cloudy 10 - - - -
27/06:30pm 11.8 WSW 18 21 1015.1 - 0.2 - Partly cloudy 10 - - - -
27/06:00pm 11.6 WSW 17 22 1014.8 - 0.2 - Mostly cloudy 10 - - - -
27/05:30pm 11.7 W 19 22 1014.6 - 0.2 - Partly cloudy 10 - - - -
27/05:00pm 11.7 WSW 18 21 1014.3 - 0.2 - Partly cloudy 10 - - - -
27/04:30pm 11.7 WSW 19 22 1014.1 - 0.2 - Partly cloudy 10 - - - -
27/04:00pm 12.1 WSW 18 22 1013.9 - 0.2 - Partly cloudy 10 - - - -
27/03:30pm 12.4 WSW 18 21 1013.6 - 0.2 - - 10 - - - -
27/03:00pm 12.8 WSW 17 20 1013.4 - 0.2 - - 10 - - - -
27/02:30pm 13.0 WSW 17 20 1013.1 - 0.2 - - 10 - - - -
27/02:00pm 13.2 WSW 18 21 1013.0 - 0.2 - - 10 - - - -
27/01:30pm 13.3 WSW 17 20 1012.8 - 0.2 - - 10 - - - -
27/01:00pm 13.2 WSW 18 22 1012.7 - 0.2 - Partly cloudy 10 - - - -
27/12:30pm 13.1 WSW 17 19 1012.8 - 0.2 - Cloudy 10 - - - -
27/12:00pm 12.9 W 17 20 1012.9 - 0.2 - Mostly cloudy 10 - - - -
27/11:30am 12.7 WNW 17 23 1013.0 - 0.2 - Partly cloudy 10 - - - -
27/11:00am 12.4 WNW 16 21 1013.2 - 0.2 - Partly cloudy 10 - - - -
27/10:30am 12.7 WNW 15 20 1013.5 - 0.2 - Partly cloudy 10 - - - -
27/10:07am 12.0 WNW 15 21 1013.6 - 0.2 - Partly cloudy 10 - - - -
27/10:00am 12.0 WNW 15 19 1013.6 - 0.2 - Partly cloudy 10 - - - -
27/09:30am 10.9 NW 12 16 1013.7 - 0.2 - Partly cloudy 10 - - - -
27/09:12am 11.1 WNW 16 22 1013.6 - 0.0 - Partly cloudy 10 - - - -
27/09:00am 11.3 WNW 14 18 1013.6 - 0.0 - Cloudy 10 - - - -
27/08:57am 11.2 WNW 14 18 1013.6 - 0.0 - Partly cloudy 10 - - - -
27/08:30am 11.2 WNW 15 21 1013.6 - 0.0 - Partly cloudy 10 - - - -
27/08:03am 11.2 WNW 13 18 1013.4 - 0.0 - Partly cloudy 10 - - - -
27/08:00am 11.2 WNW 13 19 1013.4 - 0.0 - Partly cloudy 10 - - - -
27/07:49am 11.0 WNW 16 22 1013.4 - 0.0 - Partly cloudy 10 - - - -
27/07:30am 10.5 NW 13 17 1013.3 - 0.0 - Partly cloudy 10 - - - -
27/07:00am 10.6 NW 14 19 1013.2 - 0.0 - Partly cloudy 10 - - - -
27/06:57am 10.6 NW 15 19 1013.1 - 0.0 - Partly cloudy 10 - - - -
27/06:30am 10.4 NW 15 21 1013.1 - 0.0 - Partly cloudy 10 - - - -
27/06:00am 10.6 WNW 15 20 1012.8 - 0.0 - Cloudy 10 - - - -
27/05:30am 10.7 WNW 16 22 1012.6 - 0.0 - Partly cloudy 10 - - - -
27/05:00am 10.5 WNW 16 22 1012.5 - 0.0 - - 10 - - - -
27/04:30am 10.5 WNW 17 22 1012.5 - 0.0 - Partly cloudy 10 - - - -
27/04:00am 11.0 WNW 14 19 1012.5 - 0.0 - Partly cloudy 10 - - - -
27/03:30am 11.0 WNW 16 20 1012.6 - 0.0 - Cloudy 10 - - - -
27/03:00am 10.9 WNW 15 20 1012.9 - 0.0 - Cloudy 10 - - - -
27/02:30am 10.8 WNW 15 21 1013.0 - 0.0 - Cloudy 10 - - - -
27/02:00am 10.7 WNW 15 20 1013.2 - 0.0 - Partly cloudy 10 - - - -
27/01:30am 10.8 WNW 15 21 1013.4 - 0.0 - Partly cloudy 10 - - - -
27/01:00am 10.4 NW 15 19 1013.5 - 0.0 - Partly cloudy 10 - - - -
27/12:30am 10.6 NW 16 21 1013.6 - 0.0 - Partly cloudy 10 - - - -
27/12:00am 10.7 NW 15 19 1013.8 - 0.0 - Cloudy 10 - - - -
 
Date/Time
EST
Temp
°C
Wind Pressure Rain since
9am
mm
Weather Cloud Vis
km
Sea
Height
m
Swell
Dir  Spd
kts
Gust
kts
hPa Trend Height
m
Period
s
Dir
26/11:30pm 10.9 WNW 16 22 1013.9 - 0.0 - Partly cloudy 10 - - - -
26/11:00pm 10.8 WNW 15 21 1014.1 - 0.0 - Partly cloudy 10 - - - -
26/10:30pm 10.6 WNW 12 15 1014.1 - 0.0 - Partly cloudy 10 - - - -
26/10:00pm 10.4 WNW 13 18 1014.4 - 0.0 - Partly cloudy 10 - - - -
26/09:30pm 10.5 WNW 14 18 1014.5 - 0.0 - Partly cloudy 10 - - - -
26/09:00pm 10.5 WNW 13 19 1014.6 - 0.0 - Mostly clear 10 - - - -
26/08:30pm 10.5 WNW 15 18 1014.9 - 0.0 - Partly cloudy 10 - - - -
26/08:00pm 10.4 WNW 13 18 1014.8 - 0.0 - - 10 - - - -
26/07:30pm 10.5 WNW 13 17 1014.9 - 0.0 - Partly cloudy 10 - - - -
26/07:00pm 10.6 WNW 14 19 1015.0 - 0.0 - Partly cloudy 10 - - - -
26/06:30pm 10.5 WNW 15 18 1015.0 - 0.0 - Partly cloudy 10 - - - -
26/06:00pm 10.6 WNW 15 21 1015.0 - 0.0 - Mostly clear 10 - - - -
26/05:30pm 10.9 WNW 14 19 1015.0 - 0.0 - Partly cloudy 10 - - - -
26/05:00pm 11.0 W 15 19 1014.9 - 0.0 - Partly cloudy 10 - - - -
26/04:30pm 11.2 W 15 19 1014.9 - 0.0 - Partly cloudy 10 - - - -
26/04:00pm 11.9 WNW 16 18 1014.8 - 0.0 - Partly cloudy 10 - - - -
26/03:30pm 12.3 W 16 20 1014.7 - 0.0 - Partly cloudy 10 - - - -
26/03:00pm 12.6 W 15 19 1014.7 - 0.0 - - 10 - - - -
26/02:30pm 13.3 W 14 19 1014.8 - 0.0 - Partly cloudy 10 - - - -
26/02:00pm 13.5 W 15 18 1015.1 - 0.0 - Partly cloudy 10 - - - -
26/01:30pm 12.9 W 14 18 1015.4 - 0.0 - Partly cloudy 10 - - - -
26/01:00pm 13.3 W 16 18 1015.7 - 0.0 - - 10 - - - -
26/12:30pm 13.0 W 16 20 1016.0 - 0.0 - Partly cloudy 10 - - - -
26/12:00pm 13.5 W 16 19 1016.5 - 0.0 - Cloudy 10 - - - -
26/11:30am 12.4 WSW 10 13 1016.9 - 0.0 - Cloudy 10 - - - -
26/11:00am 12.5 WSW 11 14 1017.4 - 0.0 - Partly cloudy 10 - - - -
26/10:30am 11.8 WSW 13 17 1017.8 - 0.0 - Partly cloudy 10 - - - -
26/10:26am 11.8 WSW 13 16 1017.8 - 0.0 - Partly cloudy 10 - - - -
26/10:10am 11.5 W 17 20 1017.9 - 0.0 - Partly cloudy 5 - - - -
26/10:00am 12.5 WSW 13 17 1017.9 - 0.0 - Partly cloudy 10 - - - -
26/09:30am 11.8 WSW 15 17 1018.0 - 0.0 - Partly cloudy 10 - - - -
26/09:00am 11.5 WSW 14 17 1017.9 - 0.6 - Partly cloudy 10 - - - -
26/08:30am 10.8 WSW 11 14 1017.8 - 0.6 - - 10 - - - -
26/08:00am 10.7 WSW 13 15 1017.8 - 0.6 - Partly cloudy 10 - - - -
26/07:30am 10.1 WSW 14 17 1017.6 - 0.6 - Partly cloudy 10 - - - -
26/07:00am 10.9 WSW 14 18 1017.8 - 0.2 - Partly cloudy 10 - - - -
26/06:50am 10.3 W 15 18 1017.7 - 0.2 - Partly cloudy 10 - - - -
26/06:33am 11.2 WSW 16 20 1017.7 - 0.0 - Partly cloudy 5 - - - -
26/06:30am 11.1 WSW 16 20 1017.6 - 0.0 - Partly cloudy 10 - - - -
26/06:00am 10.9 WSW 17 21 1017.5 - 0.0 - - 10 - - - -
26/05:30am 11.1 WSW 15 19 1017.4 - 0.0 - Partly cloudy 10 - - - -
26/05:00am 11.3 WSW 17 20 1017.2 - 0.0 - Partly cloudy 10 - - - -
26/04:30am 11.3 WSW 18 22 1017.1 - 0.0 - Partly cloudy 10 - - - -
26/04:00am 11.2 WSW 18 21 1017.0 - 0.0 - Partly cloudy 10 - - - -
26/03:30am 11.3 WSW 18 21 1017.1 - 0.0 - Partly cloudy 10 - - - -
26/03:00am 11.2 WSW 18 21 1017.3 - 0.0 - Mostly clear 10 - - - -
26/02:30am 11.4 WSW 18 22 1017.3 - 0.0 - Partly cloudy 10 - - - -
26/02:00am 11.5 WSW 18 22 1017.4 - 0.0 - Partly cloudy 10 - - - -
26/01:30am 11.4 WSW 17 20 1017.4 - 0.0 - Partly cloudy 10 - - - -

Other Formats:

Comma delimited format used in spreadsheet applications
http://www.bom.gov.au/fwo/IDT60701/IDT60701.94980.axf

JavaScript Object Notation format (JSON) in row-major order
http://www.bom.gov.au/fwo/IDT60701/IDT60701.94980.json